createdAt,value
2022-07-30T00:00:50.867Z,19.73
2022-07-30T00:05:57.928Z,19.70
2022-07-30T00:11:03.395Z,19.61
2022-07-30T00:16:08.937Z,19.58
2022-07-30T00:21:20.440Z,19.55
2022-07-30T00:26:22.428Z,19.52
2022-07-30T00:31:27.895Z,19.46
2022-07-30T00:36:33.564Z,19.40
2022-07-30T00:42:00.219Z,19.40
2022-07-30T00:47:07.724Z,19.39
2022-07-30T00:52:13.487Z,19.31
2022-07-30T00:57:19.088Z,19.30
2022-07-30T01:02:24.778Z,19.29
2022-07-30T01:07:30.704Z,19.26
2022-07-30T01:12:37.313Z,19.24
2022-07-30T01:17:43.256Z,19.22
2022-07-30T01:23:21.075Z,19.17
2022-07-30T01:28:32.170Z,19.14
2022-07-30T01:33:40.806Z,19.05
2022-07-30T01:38:48.195Z,18.97
2022-07-30T01:43:54.562Z,18.93
2022-07-30T01:49:01.851Z,18.95
2022-07-30T01:54:11.983Z,18.91
2022-07-30T01:59:20.512Z,18.84
2022-07-30T02:04:27.343Z,18.74
2022-07-30T02:09:36.799Z,18.73
2022-07-30T02:14:52.974Z,18.71
2022-07-30T02:20:00.063Z,18.60
2022-07-30T02:25:08.327Z,18.57
2022-07-30T02:30:14.795Z,18.58
2022-07-30T02:35:24.245Z,18.54
2022-07-30T02:40:30.486Z,18.49
2022-07-30T02:45:38.322Z,18.42
2022-07-30T02:50:44.774Z,18.40
2022-07-30T02:55:51.656Z,18.39
2022-07-30T03:00:58.264Z,18.37
2022-07-30T03:06:05.393Z,18.37
2022-07-30T03:11:13.646Z,18.39
2022-07-30T03:16:21.343Z,18.39
2022-07-30T03:21:29.964Z,18.40
2022-07-30T03:26:39.009Z,18.39
2022-07-30T03:31:45.597Z,18.41
2022-07-30T03:36:52.354Z,18.40
2022-07-30T03:41:58.396Z,18.41
2022-07-30T03:47:06.385Z,18.38
2022-07-30T03:52:14.619Z,18.40
2022-07-30T03:57:21.026Z,18.41
2022-07-30T04:02:27.412Z,18.40
2022-07-30T04:07:51.204Z,18.37
2022-07-30T04:12:58.443Z,18.45
2022-07-30T04:18:07.712Z,18.47
2022-07-30T04:23:14.451Z,18.45
2022-07-30T04:28:22.066Z,18.47
2022-07-30T04:33:28.245Z,18.48
2022-07-30T04:38:35.957Z,18.49
2022-07-30T04:43:41.421Z,18.44
2022-07-30T04:48:48.195Z,18.44
2022-07-30T04:53:56.611Z,18.51
2022-07-30T04:59:04.461Z,18.55
2022-07-30T05:04:11.595Z,18.59
2022-07-30T05:09:18.137Z,18.54
2022-07-30T05:14:25.379Z,18.58
2022-07-30T05:19:30.940Z,18.68
2022-07-30T05:24:36.484Z,18.84
2022-07-30T05:29:42.183Z,19.12
2022-07-30T05:34:50.899Z,19.41
2022-07-30T05:39:58.892Z,19.57
2022-07-30T05:45:12.318Z,19.76
2022-07-30T05:50:18.081Z,19.95
2022-07-30T05:55:23.697Z,19.99
2022-07-30T06:00:30.942Z,19.87
2022-07-30T06:05:36.810Z,19.88
2022-07-30T06:10:42.439Z,19.84
2022-07-30T06:15:49.720Z,19.99
2022-07-30T06:20:56.030Z,20.10
2022-07-30T06:26:09.275Z,20.21
2022-07-30T06:31:15.453Z,20.44
2022-07-30T06:36:21.114Z,20.80
2022-07-30T06:41:34.462Z,20.72
2022-07-30T06:46:39.974Z,20.72
2022-07-30T06:51:46.517Z,20.92
2022-07-30T06:56:52.725Z,21.02
2022-07-30T07:01:59.180Z,21.22
2022-07-30T07:07:12.303Z,21.23
2022-07-30T07:12:13.795Z,21.26
2022-07-30T07:17:20.170Z,21.28
2022-07-30T07:22:30.343Z,21.50
2022-07-30T07:27:37.402Z,21.49
2022-07-30T07:32:43.630Z,21.75
2022-07-30T07:37:50.124Z,21.98
2022-07-30T07:42:57.436Z,22.00
2022-07-30T07:48:03.300Z,22.18
2022-07-30T07:53:10.622Z,22.22
2022-07-30T07:58:25.572Z,22.29
2022-07-30T08:03:25.005Z,22.61
2022-07-30T08:08:31.398Z,22.87
2022-07-30T08:13:51.365Z,22.81
2022-07-30T08:18:58.912Z,22.97
2022-07-30T08:24:12.257Z,23.24
2022-07-30T08:29:19.150Z,23.37
2022-07-30T08:34:25.841Z,23.49
2022-07-30T08:39:32.738Z,23.72
2022-07-30T08:44:42.019Z,23.67
2022-07-30T08:49:50.090Z,23.60
2022-07-30T08:54:57.772Z,23.61
2022-07-30T09:00:05.439Z,23.76
2022-07-30T09:05:12.621Z,24.09
2022-07-30T09:10:19.766Z,24.33
2022-07-30T09:15:25.920Z,24.22
2022-07-30T09:20:37.111Z,24.48
2022-07-30T09:25:48.035Z,24.72
2022-07-30T09:31:11.703Z,24.80
2022-07-30T09:36:35.395Z,25.01
2022-07-30T09:41:59.914Z,25.03
2022-07-30T09:47:07.400Z,25.05
2022-07-30T09:52:17.672Z,25.30
2022-07-30T09:57:27.267Z,25.45
2022-07-30T10:02:34.412Z,25.68
2022-07-30T10:08:05.527Z,25.77
2022-07-30T10:13:13.565Z,25.85
2022-07-30T10:18:21.593Z,25.82
2022-07-30T10:23:45.635Z,26.05
2022-07-30T10:29:12.883Z,26.21
2022-07-30T10:34:23.723Z,26.17
2022-07-30T10:39:34.586Z,26.31
2022-07-30T10:44:41.391Z,26.46
2022-07-30T10:50:10.519Z,26.42
2022-07-30T10:55:19.881Z,26.67
2022-07-30T11:00:27.993Z,26.63
2022-07-30T11:05:45.430Z,26.75
2022-07-30T11:10:43.986Z,26.73
2022-07-30T11:15:58.574Z,26.93
2022-07-30T11:21:21.363Z,26.59
2022-07-30T11:26:46.341Z,26.63
2022-07-30T11:31:59.432Z,26.65
2022-07-30T11:37:18.245Z,26.80
2022-07-30T11:42:37.074Z,27.05
2022-07-30T11:47:48.187Z,27.19
2022-07-30T11:52:59.847Z,27.05
2022-07-30T11:58:08.493Z,27.12
2022-07-30T12:03:18.715Z,27.00
2022-07-30T12:08:35.762Z,27.17
2022-07-30T12:13:45.144Z,27.38
2022-07-30T12:18:40.508Z,27.52
2022-07-30T12:24:00.915Z,27.83
2022-07-30T12:29:10.724Z,27.91
2022-07-30T12:34:27.730Z,27.83
2022-07-30T12:39:33.274Z,27.82
2022-07-30T12:44:41.088Z,27.83
2022-07-30T12:49:49.716Z,27.90
2022-07-30T12:55:09.221Z,27.80
2022-07-30T13:00:16.435Z,27.87
2022-07-30T13:05:22.421Z,27.76
2022-07-30T13:10:31.496Z,27.79
2022-07-30T13:15:36.087Z,27.83
2022-07-30T13:20:42.934Z,27.92
2022-07-30T13:25:48.549Z,27.86
2022-07-30T13:30:54.631Z,28.06
2022-07-30T13:36:00.192Z,27.89
2022-07-30T13:41:07.351Z,27.90
2022-07-30T13:46:12.877Z,27.75
2022-07-30T13:51:18.928Z,27.74
2022-07-30T13:56:24.742Z,27.84
2022-07-30T14:01:30.321Z,27.74
2022-07-30T14:06:36.179Z,27.67
2022-07-30T14:11:41.700Z,27.65
2022-07-30T14:16:53.617Z,27.63
2022-07-30T14:21:59.284Z,27.63
2022-07-30T14:27:07.209Z,27.61
2022-07-30T14:32:12.691Z,27.71
2022-07-30T14:37:18.778Z,27.66
2022-07-30T14:42:25.638Z,27.64
2022-07-30T14:47:33.267Z,27.55
2022-07-30T14:52:40.360Z,27.41
2022-07-30T14:57:45.916Z,27.67
2022-07-30T15:02:51.389Z,27.57
2022-07-30T15:07:57.063Z,27.48
2022-07-30T15:13:02.625Z,27.36
2022-07-30T15:18:08.172Z,27.30
2022-07-30T15:23:14.581Z,28.08
2022-07-30T15:28:20.236Z,27.31
2022-07-30T15:33:26.118Z,27.15
2022-07-30T15:38:31.663Z,27.11
2022-07-30T15:43:37.278Z,27.27
2022-07-30T15:48:42.792Z,27.30
2022-07-30T15:53:48.878Z,27.29
2022-07-30T15:58:54.744Z,27.20
2022-07-30T16:04:00.270Z,27.22
2022-07-30T16:09:07.299Z,27.25
2022-07-30T16:14:12.975Z,27.24
2022-07-30T16:19:18.434Z,27.15
2022-07-30T16:24:23.996Z,27.26
2022-07-30T16:29:29.462Z,27.14
2022-07-30T16:34:35.122Z,27.24
2022-07-30T16:39:40.694Z,27.27
2022-07-30T16:44:46.249Z,27.21
2022-07-30T16:49:51.742Z,27.26
2022-07-30T16:54:57.379Z,27.22
2022-07-30T17:00:03.187Z,26.99
2022-07-30T17:05:13.759Z,26.77
2022-07-30T17:10:17.540Z,26.59
2022-07-30T17:15:32.012Z,26.47
2022-07-30T17:20:32.812Z,26.50
2022-07-30T17:25:38.348Z,26.33
2022-07-30T17:30:43.915Z,26.35
2022-07-30T17:35:49.784Z,26.33
2022-07-30T17:40:56.072Z,26.16
2022-07-30T17:46:02.897Z,26.11
2022-07-30T17:51:08.526Z,25.95
2022-07-30T17:56:26.806Z,25.85
2022-07-30T18:01:29.541Z,25.71
2022-07-30T18:06:37.007Z,25.64
2022-07-30T18:11:43.278Z,25.88
2022-07-30T18:16:48.845Z,26.28
2022-07-30T18:21:54.815Z,26.27
2022-07-30T18:27:00.383Z,26.05
2022-07-30T18:32:06.813Z,25.75
2022-07-30T18:37:12.537Z,25.52
2022-07-30T18:42:18.199Z,25.38
2022-07-30T18:47:24.380Z,25.23
2022-07-30T18:52:29.851Z,25.06
2022-07-30T18:57:36.327Z,24.87
2022-07-30T19:02:42.508Z,24.70
2022-07-30T19:07:57.159Z,24.56
2022-07-30T19:12:56.719Z,24.44
2022-07-30T19:18:02.796Z,24.29
2022-07-30T19:23:09.093Z,24.12
2022-07-30T19:28:16.427Z,23.97
2022-07-30T19:33:22.146Z,23.77
2022-07-30T19:38:27.602Z,23.67
2022-07-30T19:43:34.310Z,23.55
2022-07-30T19:48:41.529Z,23.42
2022-07-30T19:53:48.295Z,23.30
2022-07-30T19:58:54.279Z,23.19
2022-07-30T20:04:01.290Z,23.06
2022-07-30T20:09:14.098Z,22.92
2022-07-30T20:14:16.329Z,22.82
2022-07-30T20:19:23.093Z,22.64
2022-07-30T20:24:29.315Z,22.50
2022-07-30T20:29:34.822Z,22.88
2022-07-30T20:34:42.847Z,22.25
2022-07-30T20:39:55.755Z,21.93
2022-07-30T20:45:01.759Z,21.71
2022-07-30T20:50:14.486Z,21.56
2022-07-30T20:55:22.083Z,21.35
2022-07-30T21:00:27.469Z,21.21
2022-07-30T21:05:33.132Z,21.08
2022-07-30T21:10:39.028Z,21.78
2022-07-30T21:16:02.223Z,21.12
2022-07-30T21:20:52.380Z,20.88
2022-07-30T21:26:00.614Z,20.64
2022-07-30T21:31:07.060Z,20.50
2022-07-30T21:36:13.886Z,20.36
2022-07-30T21:41:40.010Z,20.27
2022-07-30T21:46:29.108Z,20.13
2022-07-30T21:51:34.900Z,20.03
2022-07-30T21:56:41.633Z,19.96
2022-07-30T22:01:47.883Z,19.83
2022-07-30T22:06:54.496Z,19.79
2022-07-30T22:12:00.732Z,19.66
2022-07-30T22:17:23.458Z,19.57
2022-07-30T22:22:26.953Z,19.46
2022-07-30T22:27:22.022Z,19.37
2022-07-30T22:32:27.795Z,19.32
2022-07-30T22:37:34.796Z,19.23
2022-07-30T22:42:49.510Z,19.15
2022-07-30T22:47:50.864Z,19.05
2022-07-30T22:53:09.791Z,18.96
2022-07-30T22:58:04.733Z,18.93
2022-07-30T23:03:10.340Z,18.82
2022-07-30T23:08:17.193Z,18.68
2022-07-30T23:13:24.419Z,18.61
2022-07-30T23:18:30.060Z,18.56
2022-07-30T23:23:36.066Z,18.49
2022-07-30T23:28:41.603Z,18.41
2022-07-30T23:33:47.168Z,18.30
2022-07-30T23:38:52.734Z,18.22
2022-07-30T23:43:58.296Z,18.11
2022-07-30T23:49:04.105Z,18.04
2022-07-30T23:54:09.838Z,17.96
2022-07-30T23:59:15.504Z,17.91
